sensor_id;sensor_type;location;lat;lon;timestamp;P1;durP1;ratioP1;P2;durP2;ratioP2
10565;SDS011;5331;48.148;16.326;2023-06-26T00:01:31;9.10;;;7.63;;
10565;SDS011;5331;48.148;16.326;2023-06-26T00:03:58;7.97;;;7.20;;
10565;SDS011;5331;48.148;16.326;2023-06-26T00:06:26;8.13;;;7.32;;
10565;SDS011;5331;48.148;16.326;2023-06-26T00:08:54;9.45;;;7.22;;
10565;SDS011;5331;48.148;16.326;2023-06-26T00:11:22;8.13;;;7.07;;
10565;SDS011;5331;48.148;16.326;2023-06-26T00:13:51;9.52;;;7.32;;
10565;SDS011;5331;48.148;16.326;2023-06-26T00:16:18;9.70;;;7.85;;
10565;SDS011;5331;48.148;16.326;2023-06-26T00:18:45;8.70;;;7.90;;
10565;SDS011;5331;48.148;16.326;2023-06-26T00:21:12;7.93;;;7.18;;
10565;SDS011;5331;48.148;16.326;2023-06-26T00:23:39;8.35;;;7.55;;
10565;SDS011;5331;48.148;16.326;2023-06-26T00:26:05;8.25;;;7.03;;
10565;SDS011;5331;48.148;16.326;2023-06-26T00:28:35;7.95;;;6.80;;
10565;SDS011;5331;48.148;16.326;2023-06-26T00:31:02;9.27;;;7.57;;
10565;SDS011;5331;48.148;16.326;2023-06-26T00:33:29;8.45;;;7.57;;
10565;SDS011;5331;48.148;16.326;2023-06-26T00:35:56;7.20;;;6.60;;
10565;SDS011;5331;48.148;16.326;2023-06-26T00:38:23;7.38;;;6.75;;
10565;SDS011;5331;48.148;16.326;2023-06-26T00:40:50;8.38;;;7.57;;
10565;SDS011;5331;48.148;16.326;2023-06-26T00:43:17;8.02;;;7.10;;
10565;SDS011;5331;48.148;16.326;2023-06-26T00:45:45;7.78;;;6.93;;
10565;SDS011;5331;48.148;16.326;2023-06-26T00:48:12;9.23;;;7.40;;
10565;SDS011;5331;48.148;16.326;2023-06-26T00:50:39;7.53;;;6.80;;
10565;SDS011;5331;48.148;16.326;2023-06-26T00:53:07;8.45;;;7.32;;
10565;SDS011;5331;48.148;16.326;2023-06-26T00:55:36;7.25;;;6.63;;
10565;SDS011;5331;48.148;16.326;2023-06-26T00:58:03;7.00;;;6.40;;
10565;SDS011;5331;48.148;16.326;2023-06-26T01:00:30;7.95;;;7.25;;
10565;SDS011;5331;48.148;16.326;2023-06-26T01:02:59;8.77;;;7.45;;
10565;SDS011;5331;48.148;16.326;2023-06-26T01:05:26;7.70;;;7.00;;
10565;SDS011;5331;48.148;16.326;2023-06-26T01:07:53;7.22;;;6.53;;
10565;SDS011;5331;48.148;16.326;2023-06-26T01:10:21;7.63;;;6.93;;
10565;SDS011;5331;48.148;16.326;2023-06-26T01:12:48;7.90;;;7.15;;
10565;SDS011;5331;48.148;16.326;2023-06-26T01:15:15;7.18;;;6.47;;
10565;SDS011;5331;48.148;16.326;2023-06-26T01:17:42;9.40;;;6.97;;
10565;SDS011;5331;48.148;16.326;2023-06-26T01:20:13;7.18;;;6.40;;
10565;SDS011;5331;48.148;16.326;2023-06-26T01:22:43;7.43;;;6.72;;
10565;SDS011;5331;48.148;16.326;2023-06-26T01:25:18;7.45;;;6.85;;
10565;SDS011;5331;48.148;16.326;2023-06-26T01:27:52;6.72;;;6.05;;
10565;SDS011;5331;48.148;16.326;2023-06-26T01:30:19;7.20;;;6.50;;
10565;SDS011;5331;48.148;16.326;2023-06-26T01:32:47;7.10;;;6.40;;
10565;SDS011;5331;48.148;16.326;2023-06-26T01:35:16;6.95;;;6.35;;
10565;SDS011;5331;48.148;16.326;2023-06-26T01:37:44;6.90;;;6.28;;
10565;SDS011;5331;48.148;16.326;2023-06-26T01:40:10;7.00;;;6.30;;
10565;SDS011;5331;48.148;16.326;2023-06-26T01:42:38;7.50;;;6.75;;
10565;SDS011;5331;48.148;16.326;2023-06-26T01:45:09;7.05;;;6.35;;
10565;SDS011;5331;48.148;16.326;2023-06-26T01:47:41;7.88;;;7.15;;
10565;SDS011;5331;48.148;16.326;2023-06-26T01:50:12;7.88;;;6.88;;
10565;SDS011;5331;48.148;16.326;2023-06-26T01:52:46;7.72;;;7.03;;
10565;SDS011;5331;48.148;16.326;2023-06-26T01:55:21;7.22;;;6.63;;
10565;SDS011;5331;48.148;16.326;2023-06-26T01:58:01;7.40;;;6.78;;
10565;SDS011;5331;48.148;16.326;2023-06-26T02:00:30;7.35;;;6.75;;
10565;SDS011;5331;48.148;16.326;2023-06-26T02:02:58;7.55;;;6.85;;
10565;SDS011;5331;48.148;16.326;2023-06-26T02:05:25;6.80;;;6.20;;
10565;SDS011;5331;48.148;16.326;2023-06-26T02:07:52;7.45;;;6.75;;
10565;SDS011;5331;48.148;16.326;2023-06-26T02:10:19;9.32;;;7.35;;
10565;SDS011;5331;48.148;16.326;2023-06-26T02:12:46;7.70;;;6.88;;
10565;SDS011;5331;48.148;16.326;2023-06-26T02:15:12;7.63;;;6.82;;
10565;SDS011;5331;48.148;16.326;2023-06-26T02:17:41;7.45;;;6.75;;
10565;SDS011;5331;48.148;16.326;2023-06-26T02:20:08;7.75;;;6.90;;
10565;SDS011;5331;48.148;16.326;2023-06-26T02:22:36;7.53;;;6.82;;
10565;SDS011;5331;48.148;16.326;2023-06-26T02:25:03;7.45;;;6.70;;
10565;SDS011;5331;48.148;16.326;2023-06-26T02:27:30;7.70;;;7.00;;
10565;SDS011;5331;48.148;16.326;2023-06-26T02:29:57;7.47;;;6.78;;
10565;SDS011;5331;48.148;16.326;2023-06-26T02:32:24;7.43;;;6.78;;
10565;SDS011;5331;48.148;16.326;2023-06-26T02:34:52;7.72;;;6.93;;
10565;SDS011;5331;48.148;16.326;2023-06-26T02:37:19;7.90;;;7.15;;
10565;SDS011;5331;48.148;16.326;2023-06-26T02:39:46;7.28;;;6.57;;
10565;SDS011;5331;48.148;16.326;2023-06-26T02:42:13;8.15;;;7.07;;
10565;SDS011;5331;48.148;16.326;2023-06-26T02:44:40;7.80;;;7.00;;
10565;SDS011;5331;48.148;16.326;2023-06-26T02:47:07;7.97;;;7.18;;
10565;SDS011;5331;48.148;16.326;2023-06-26T02:49:34;7.70;;;6.95;;
10565;SDS011;5331;48.148;16.326;2023-06-26T02:52:02;7.97;;;7.18;;
10565;SDS011;5331;48.148;16.326;2023-06-26T02:54:30;8.05;;;7.25;;
10565;SDS011;5331;48.148;16.326;2023-06-26T02:56:58;7.53;;;6.55;;
10565;SDS011;5331;48.148;16.326;2023-06-26T02:59:25;7.40;;;6.70;;
10565;SDS011;5331;48.148;16.326;2023-06-26T03:01:52;7.60;;;6.90;;
10565;SDS011;5331;48.148;16.326;2023-06-26T03:04:19;7.65;;;6.95;;
10565;SDS011;5331;48.148;16.326;2023-06-26T03:06:46;7.93;;;7.13;;
10565;SDS011;5331;48.148;16.326;2023-06-26T03:09:15;8.63;;;7.07;;
10565;SDS011;5331;48.148;16.326;2023-06-26T03:11:43;7.70;;;6.90;;
10565;SDS011;5331;48.148;16.326;2023-06-26T03:14:09;8.50;;;7.10;;
10565;SDS011;5331;48.148;16.326;2023-06-26T03:16:36;7.93;;;7.13;;
10565;SDS011;5331;48.148;16.326;2023-06-26T03:19:03;7.90;;;7.10;;
10565;SDS011;5331;48.148;16.326;2023-06-26T03:21:31;8.00;;;7.20;;
10565;SDS011;5331;48.148;16.326;2023-06-26T03:23:58;7.88;;;7.18;;
10565;SDS011;5331;48.148;16.326;2023-06-26T03:26:27;8.63;;;6.63;;
10565;SDS011;5331;48.148;16.326;2023-06-26T03:28:54;7.60;;;6.88;;
10565;SDS011;5331;48.148;16.326;2023-06-26T03:31:21;8.25;;;7.13;;
10565;SDS011;5331;48.148;16.326;2023-06-26T03:33:48;8.25;;;7.32;;
10565;SDS011;5331;48.148;16.326;2023-06-26T03:36:15;7.13;;;6.53;;
10565;SDS011;5331;48.148;16.326;2023-06-26T03:38:42;7.95;;;7.25;;
10565;SDS011;5331;48.148;16.326;2023-06-26T03:41:09;8.38;;;6.82;;
10565;SDS011;5331;48.148;16.326;2023-06-26T03:43:37;8.30;;;7.45;;
10565;SDS011;5331;48.148;16.326;2023-06-26T03:46:04;8.00;;;7.18;;
10565;SDS011;5331;48.148;16.326;2023-06-26T03:48:31;7.38;;;6.68;;
10565;SDS011;5331;48.148;16.326;2023-06-26T03:50:58;8.45;;;6.95;;
10565;SDS011;5331;48.148;16.326;2023-06-26T03:53:26;7.13;;;6.43;;
10565;SDS011;5331;48.148;16.326;2023-06-26T03:55:53;7.50;;;6.70;;
10565;SDS011;5331;48.148;16.326;2023-06-26T03:58:20;7.15;;;6.55;;
10565;SDS011;5331;48.148;16.326;2023-06-26T04:00:49;7.57;;;6.88;;
10565;SDS011;5331;48.148;16.326;2023-06-26T04:03:15;7.13;;;6.43;;
10565;SDS011;5331;48.148;16.326;2023-06-26T04:05:42;7.63;;;6.82;;
10565;SDS011;5331;48.148;16.326;2023-06-26T04:08:09;7.88;;;7.00;;
10565;SDS011;5331;48.148;16.326;2023-06-26T04:10:36;7.15;;;6.45;;
10565;SDS011;5331;48.148;16.326;2023-06-26T04:13:03;7.60;;;6.80;;
10565;SDS011;5331;48.148;16.326;2023-06-26T04:15:30;7.90;;;7.13;;
10565;SDS011;5331;48.148;16.326;2023-06-26T04:17:58;7.80;;;7.10;;
10565;SDS011;5331;48.148;16.326;2023-06-26T04:20:25;7.65;;;6.85;;
10565;SDS011;5331;48.148;16.326;2023-06-26T04:22:52;7.97;;;7.13;;
10565;SDS011;5331;48.148;16.326;2023-06-26T04:25:19;7.90;;;7.10;;
10565;SDS011;5331;48.148;16.326;2023-06-26T04:27:46;7.72;;;7.03;;
10565;SDS011;5331;48.148;16.326;2023-06-26T04:30:13;10.45;;;7.35;;
10565;SDS011;5331;48.148;16.326;2023-06-26T04:32:40;8.25;;;7.45;;
10565;SDS011;5331;48.148;16.326;2023-06-26T04:35:09;8.07;;;7.28;;
10565;SDS011;5331;48.148;16.326;2023-06-26T04:37:36;7.65;;;6.88;;
10565;SDS011;5331;48.148;16.326;2023-06-26T04:40:04;8.20;;;7.43;;
10565;SDS011;5331;48.148;16.326;2023-06-26T04:42:32;8.57;;;7.45;;
10565;SDS011;5331;48.148;16.326;2023-06-26T04:44:59;8.35;;;7.55;;
10565;SDS011;5331;48.148;16.326;2023-06-26T04:47:27;8.40;;;7.40;;
10565;SDS011;5331;48.148;16.326;2023-06-26T04:49:54;8.63;;;7.72;;
10565;SDS011;5331;48.148;16.326;2023-06-26T04:52:22;8.75;;;7.85;;
10565;SDS011;5331;48.148;16.326;2023-06-26T04:54:49;8.55;;;7.70;;
10565;SDS011;5331;48.148;16.326;2023-06-26T04:57:16;11.63;;;7.85;;
10565;SDS011;5331;48.148;16.326;2023-06-26T04:59:43;8.50;;;7.57;;
10565;SDS011;5331;48.148;16.326;2023-06-26T05:02:10;8.27;;;7.45;;
10565;SDS011;5331;48.148;16.326;2023-06-26T05:04:39;10.00;;;8.40;;
10565;SDS011;5331;48.148;16.326;2023-06-26T05:07:07;9.02;;;8.13;;
10565;SDS011;5331;48.148;16.326;2023-06-26T05:09:35;8.52;;;7.72;;
10565;SDS011;5331;48.148;16.326;2023-06-26T05:12:03;8.73;;;7.78;;
10565;SDS011;5331;48.148;16.326;2023-06-26T05:14:30;8.43;;;7.53;;
10565;SDS011;5331;48.148;16.326;2023-06-26T05:16:57;9.80;;;8.38;;
10565;SDS011;5331;48.148;16.326;2023-06-26T05:19:24;9.27;;;7.95;;
10565;SDS011;5331;48.148;16.326;2023-06-26T05:21:51;8.55;;;7.82;;
10565;SDS011;5331;48.148;16.326;2023-06-26T05:24:18;8.82;;;7.93;;
10565;SDS011;5331;48.148;16.326;2023-06-26T05:26:48;9.85;;;8.75;;
10565;SDS011;5331;48.148;16.326;2023-06-26T05:29:15;9.40;;;8.48;;
10565;SDS011;5331;48.148;16.326;2023-06-26T05:31:42;8.85;;;8.05;;
10565;SDS011;5331;48.148;16.326;2023-06-26T05:34:11;10.25;;;8.05;;
10565;SDS011;5331;48.148;16.326;2023-06-26T05:36:39;10.27;;;8.60;;
10565;SDS011;5331;48.148;16.326;2023-06-26T05:39:08;8.77;;;7.88;;
10565;SDS011;5331;48.148;16.326;2023-06-26T05:41:36;9.05;;;8.15;;
10565;SDS011;5331;48.148;16.326;2023-06-26T05:44:04;13.25;;;9.82;;
10565;SDS011;5331;48.148;16.326;2023-06-26T05:46:31;11.40;;;9.25;;
10565;SDS011;5331;48.148;16.326;2023-06-26T05:49:00;10.45;;;9.10;;
10565;SDS011;5331;48.148;16.326;2023-06-26T05:51:27;10.75;;;9.10;;
10565;SDS011;5331;48.148;16.326;2023-06-26T05:53:54;11.13;;;9.55;;
10565;SDS011;5331;48.148;16.326;2023-06-26T05:56:22;9.20;;;8.25;;
10565;SDS011;5331;48.148;16.326;2023-06-26T05:58:49;9.45;;;8.55;;
10565;SDS011;5331;48.148;16.326;2023-06-26T06:01:19;10.80;;;8.60;;
10565;SDS011;5331;48.148;16.326;2023-06-26T06:03:46;13.63;;;8.25;;
10565;SDS011;5331;48.148;16.326;2023-06-26T06:06:13;12.15;;;8.55;;
10565;SDS011;5331;48.148;16.326;2023-06-26T06:08:41;10.43;;;7.10;;
10565;SDS011;5331;48.148;16.326;2023-06-26T06:11:08;8.48;;;7.55;;
10565;SDS011;5331;48.148;16.326;2023-06-26T06:13:35;6.95;;;6.35;;
10565;SDS011;5331;48.148;16.326;2023-06-26T06:16:02;6.78;;;6.18;;
10565;SDS011;5331;48.148;16.326;2023-06-26T06:18:30;6.90;;;6.20;;
10565;SDS011;5331;48.148;16.326;2023-06-26T06:20:57;6.78;;;6.18;;
10565;SDS011;5331;48.148;16.326;2023-06-26T06:23:25;5.75;;;5.25;;
10565;SDS011;5331;48.148;16.326;2023-06-26T06:25:52;5.85;;;5.32;;
10565;SDS011;5331;48.148;16.326;2023-06-26T06:28:19;5.97;;;5.47;;
10565;SDS011;5331;48.148;16.326;2023-06-26T06:30:46;6.82;;;5.55;;
10565;SDS011;5331;48.148;16.326;2023-06-26T06:33:13;6.20;;;5.60;;
10565;SDS011;5331;48.148;16.326;2023-06-26T06:35:42;6.70;;;5.55;;
10565;SDS011;5331;48.148;16.326;2023-06-26T06:38:09;6.60;;;5.70;;
10565;SDS011;5331;48.148;16.326;2023-06-26T06:40:36;5.93;;;5.40;;
10565;SDS011;5331;48.148;16.326;2023-06-26T06:43:03;6.28;;;5.68;;
10565;SDS011;5331;48.148;16.326;2023-06-26T06:45:30;8.13;;;5.80;;
10565;SDS011;5331;48.148;16.326;2023-06-26T06:47:57;6.25;;;5.72;;
10565;SDS011;5331;48.148;16.326;2023-06-26T06:50:24;6.18;;;5.57;;
10565;SDS011;5331;48.148;16.326;2023-06-26T06:52:52;5.70;;;5.20;;
10565;SDS011;5331;48.148;16.326;2023-06-26T06:55:19;5.60;;;5.20;;
10565;SDS011;5331;48.148;16.326;2023-06-26T06:57:46;6.30;;;5.63;;
10565;SDS011;5331;48.148;16.326;2023-06-26T07:00:14;5.53;;;5.00;;
10565;SDS011;5331;48.148;16.326;2023-06-26T07:02:42;6.45;;;5.82;;
10565;SDS011;5331;48.148;16.326;2023-06-26T07:05:10;6.95;;;5.97;;
10565;SDS011;5331;48.148;16.326;2023-06-26T07:07:37;6.30;;;5.80;;
10565;SDS011;5331;48.148;16.326;2023-06-26T07:10:07;6.38;;;5.78;;
10565;SDS011;5331;48.148;16.326;2023-06-26T07:12:36;6.55;;;5.45;;
10565;SDS011;5331;48.148;16.326;2023-06-26T07:15:04;6.28;;;5.78;;
10565;SDS011;5331;48.148;16.326;2023-06-26T07:17:32;6.03;;;5.55;;
10565;SDS011;5331;48.148;16.326;2023-06-26T07:20:00;6.20;;;5.60;;
10565;SDS011;5331;48.148;16.326;2023-06-26T07:22:30;5.75;;;5.25;;
10565;SDS011;5331;48.148;16.326;2023-06-26T07:24:56;5.95;;;5.40;;
10565;SDS011;5331;48.148;16.326;2023-06-26T07:27:25;6.35;;;5.80;;
10565;SDS011;5331;48.148;16.326;2023-06-26T07:29:52;6.40;;;5.90;;
10565;SDS011;5331;48.148;16.326;2023-06-26T07:32:18;6.60;;;6.00;;
10565;SDS011;5331;48.148;16.326;2023-06-26T07:34:45;6.50;;;5.90;;
10565;SDS011;5331;48.148;16.326;2023-06-26T07:37:12;5.85;;;5.35;;
10565;SDS011;5331;48.148;16.326;2023-06-26T07:39:39;6.20;;;5.70;;
10565;SDS011;5331;48.148;16.326;2023-06-26T07:42:06;6.15;;;5.65;;
10565;SDS011;5331;48.148;16.326;2023-06-26T07:44:34;6.05;;;5.63;;
10565;SDS011;5331;48.148;16.326;2023-06-26T07:47:01;7.05;;;6.35;;
10565;SDS011;5331;48.148;16.326;2023-06-26T07:49:28;6.53;;;5.93;;
10565;SDS011;5331;48.148;16.326;2023-06-26T07:51:55;6.18;;;5.68;;
10565;SDS011;5331;48.148;16.326;2023-06-26T07:54:22;5.63;;;5.13;;
10565;SDS011;5331;48.148;16.326;2023-06-26T07:56:52;4.90;;;4.47;;
10565;SDS011;5331;48.148;16.326;2023-06-26T07:59:20;4.07;;;3.78;;
10565;SDS011;5331;48.148;16.326;2023-06-26T08:01:49;4.93;;;4.63;;
10565;SDS011;5331;48.148;16.326;2023-06-26T08:04:17;5.88;;;5.40;;
10565;SDS011;5331;48.148;16.326;2023-06-26T08:06:45;5.43;;;5.03;;
10565;SDS011;5331;48.148;16.326;2023-06-26T08:09:14;4.82;;;4.50;;
10565;SDS011;5331;48.148;16.326;2023-06-26T08:11:41;4.75;;;4.15;;
10565;SDS011;5331;48.148;16.326;2023-06-26T08:14:08;5.40;;;5.00;;
10565;SDS011;5331;48.148;16.326;2023-06-26T08:16:35;5.47;;;5.07;;
10565;SDS011;5331;48.148;16.326;2023-06-26T08:19:03;5.53;;;5.05;;
10565;SDS011;5331;48.148;16.326;2023-06-26T08:21:30;5.20;;;4.80;;
10565;SDS011;5331;48.148;16.326;2023-06-26T08:23:57;5.03;;;4.63;;
10565;SDS011;5331;48.148;16.326;2023-06-26T08:26:23;5.20;;;4.80;;
10565;SDS011;5331;48.148;16.326;2023-06-26T08:28:50;4.90;;;4.60;;
10565;SDS011;5331;48.148;16.326;2023-06-26T08:31:17;5.60;;;5.10;;
10565;SDS011;5331;48.148;16.326;2023-06-26T08:33:44;5.70;;;5.00;;
10565;SDS011;5331;48.148;16.326;2023-06-26T08:36:12;5.72;;;5.18;;
10565;SDS011;5331;48.148;16.326;2023-06-26T08:38:39;5.20;;;4.80;;
10565;SDS011;5331;48.148;16.326;2023-06-26T08:41:06;5.90;;;5.40;;
10565;SDS011;5331;48.148;16.326;2023-06-26T08:43:33;6.05;;;5.55;;
10565;SDS011;5331;48.148;16.326;2023-06-26T08:46:01;5.93;;;5.43;;
10565;SDS011;5331;48.148;16.326;2023-06-26T08:48:29;6.50;;;6.00;;
10565;SDS011;5331;48.148;16.326;2023-06-26T08:50:58;6.05;;;5.55;;
10565;SDS011;5331;48.148;16.326;2023-06-26T08:53:36;5.82;;;5.32;;
10565;SDS011;5331;48.148;16.326;2023-06-26T08:56:09;6.90;;;5.47;;
10565;SDS011;5331;48.148;16.326;2023-06-26T08:58:37;6.05;;;5.55;;
10565;SDS011;5331;48.148;16.326;2023-06-26T09:01:04;6.03;;;5.55;;
10565;SDS011;5331;48.148;16.326;2023-06-26T09:03:31;6.07;;;5.57;;
10565;SDS011;5331;48.148;16.326;2023-06-26T09:05:59;5.72;;;5.28;;
10565;SDS011;5331;48.148;16.326;2023-06-26T09:08:26;5.78;;;5.32;;
10565;SDS011;5331;48.148;16.326;2023-06-26T09:10:54;6.85;;;5.70;;
10565;SDS011;5331;48.148;16.326;2023-06-26T09:13:21;5.97;;;5.47;;
10565;SDS011;5331;48.148;16.326;2023-06-26T09:15:48;6.05;;;5.55;;
10565;SDS011;5331;48.148;16.326;2023-06-26T09:18:18;6.53;;;5.93;;
10565;SDS011;5331;48.148;16.326;2023-06-26T09:20:46;6.60;;;6.00;;
10565;SDS011;5331;48.148;16.326;2023-06-26T09:23:13;6.07;;;5.57;;
10565;SDS011;5331;48.148;16.326;2023-06-26T09:25:41;5.88;;;5.38;;
10565;SDS011;5331;48.148;16.326;2023-06-26T09:28:11;6.10;;;5.60;;
10565;SDS011;5331;48.148;16.326;2023-06-26T09:30:38;6.10;;;5.60;;
10565;SDS011;5331;48.148;16.326;2023-06-26T09:33:14;6.80;;;6.20;;
10565;SDS011;5331;48.148;16.326;2023-06-26T09:35:42;5.72;;;5.22;;
10565;SDS011;5331;48.148;16.326;2023-06-26T09:38:09;6.00;;;5.57;;
10565;SDS011;5331;48.148;16.326;2023-06-26T09:40:37;5.60;;;5.20;;
10565;SDS011;5331;48.148;16.326;2023-06-26T09:43:04;5.82;;;5.40;;
10565;SDS011;5331;48.148;16.326;2023-06-26T09:45:33;5.30;;;4.90;;
10565;SDS011;5331;48.148;16.326;2023-06-26T09:48:01;5.25;;;4.80;;
10565;SDS011;5331;48.148;16.326;2023-06-26T09:50:29;5.88;;;5.43;;
10565;SDS011;5331;48.148;16.326;2023-06-26T09:52:59;5.43;;;5.00;;
10565;SDS011;5331;48.148;16.326;2023-06-26T09:55:34;5.30;;;4.90;;
10565;SDS011;5331;48.148;16.326;2023-06-26T09:58:02;5.50;;;5.10;;
10565;SDS011;5331;48.148;16.326;2023-06-26T10:00:29;5.53;;;5.13;;
10565;SDS011;5331;48.148;16.326;2023-06-26T10:02:58;5.00;;;4.70;;
10565;SDS011;5331;48.148;16.326;2023-06-26T10:05:25;4.72;;;4.43;;
10565;SDS011;5331;48.148;16.326;2023-06-26T10:07:52;4.97;;;4.57;;
10565;SDS011;5331;48.148;16.326;2023-06-26T10:10:19;5.18;;;4.82;;
10565;SDS011;5331;48.148;16.326;2023-06-26T10:12:49;5.45;;;5.05;;
10565;SDS011;5331;48.148;16.326;2023-06-26T10:15:21;5.53;;;5.03;;
10565;SDS011;5331;48.148;16.326;2023-06-26T10:17:50;5.65;;;5.15;;
10565;SDS011;5331;48.148;16.326;2023-06-26T10:20:23;5.60;;;5.10;;
10565;SDS011;5331;48.148;16.326;2023-06-26T10:22:52;5.20;;;4.80;;
10565;SDS011;5331;48.148;16.326;2023-06-26T10:25:24;5.25;;;4.75;;
10565;SDS011;5331;48.148;16.326;2023-06-26T10:27:52;5.55;;;5.15;;
10565;SDS011;5331;48.148;16.326;2023-06-26T10:30:22;4.88;;;4.47;;
10565;SDS011;5331;48.148;16.326;2023-06-26T10:32:53;5.38;;;4.97;;
10565;SDS011;5331;48.148;16.326;2023-06-26T10:35:21;5.40;;;5.00;;
10565;SDS011;5331;48.148;16.326;2023-06-26T10:37:50;6.07;;;5.28;;
10565;SDS011;5331;48.148;16.326;2023-06-26T10:40:21;5.32;;;4.93;;
10565;SDS011;5331;48.148;16.326;2023-06-26T10:42:51;6.03;;;5.45;;
10565;SDS011;5331;48.148;16.326;2023-06-26T10:45:31;5.68;;;5.28;;
10565;SDS011;5331;48.148;16.326;2023-06-26T10:48:00;5.63;;;5.22;;
10565;SDS011;5331;48.148;16.326;2023-06-26T10:50:30;5.57;;;5.15;;
10565;SDS011;5331;48.148;16.326;2023-06-26T10:53:08;5.82;;;5.15;;
10565;SDS011;5331;48.148;16.326;2023-06-26T10:55:36;5.05;;;4.68;;
10565;SDS011;5331;48.148;16.326;2023-06-26T10:58:04;5.13;;;4.72;;
10565;SDS011;5331;48.148;16.326;2023-06-26T11:00:30;5.30;;;4.80;;
10565;SDS011;5331;48.148;16.326;2023-06-26T11:02:58;5.30;;;4.90;;
10565;SDS011;5331;48.148;16.326;2023-06-26T11:05:26;4.80;;;4.40;;
10565;SDS011;5331;48.148;16.326;2023-06-26T11:08:04;4.63;;;4.30;;
10565;SDS011;5331;48.148;16.326;2023-06-26T11:13:23;4.75;;;4.40;;
10565;SDS011;5331;48.148;16.326;2023-06-26T11:15:51;4.90;;;4.50;;
10565;SDS011;5331;48.148;16.326;2023-06-26T11:18:19;4.97;;;4.57;;
10565;SDS011;5331;48.148;16.326;2023-06-26T11:20:47;5.13;;;4.72;;
10565;SDS011;5331;48.148;16.326;2023-06-26T11:23:13;5.03;;;4.60;;
10565;SDS011;5331;48.148;16.326;2023-06-26T11:25:48;4.93;;;4.53;;
10565;SDS011;5331;48.148;16.326;2023-06-26T11:28:17;5.00;;;4.70;;
10565;SDS011;5331;48.148;16.326;2023-06-26T11:30:47;4.85;;;4.50;;
10565;SDS011;5331;48.148;16.326;2023-06-26T11:33:16;4.55;;;4.25;;
10565;SDS011;5331;48.148;16.326;2023-06-26T11:35:43;4.80;;;4.50;;
10565;SDS011;5331;48.148;16.326;2023-06-26T11:38:10;4.78;;;4.47;;
10565;SDS011;5331;48.148;16.326;2023-06-26T11:40:39;4.80;;;4.43;;
10565;SDS011;5331;48.148;16.326;2023-06-26T11:43:06;5.05;;;4.55;;
10565;SDS011;5331;48.148;16.326;2023-06-26T11:45:37;5.18;;;4.78;;
10565;SDS011;5331;48.148;16.326;2023-06-26T11:48:05;5.03;;;4.53;;
10565;SDS011;5331;48.148;16.326;2023-06-26T11:50:39;5.25;;;4.85;;
10565;SDS011;5331;48.148;16.326;2023-06-26T11:53:06;4.90;;;4.60;;
10565;SDS011;5331;48.148;16.326;2023-06-26T11:55:40;4.85;;;4.40;;
10565;SDS011;5331;48.148;16.326;2023-06-26T11:58:14;4.97;;;4.68;;
10565;SDS011;5331;48.148;16.326;2023-06-26T12:00:43;4.60;;;4.30;;
10565;SDS011;5331;48.148;16.326;2023-06-26T12:03:10;5.05;;;4.65;;
10565;SDS011;5331;48.148;16.326;2023-06-26T12:05:38;4.65;;;4.30;;
10565;SDS011;5331;48.148;16.326;2023-06-26T12:08:06;5.35;;;4.53;;
10565;SDS011;5331;48.148;16.326;2023-06-26T12:10:33;4.88;;;4.45;;
10565;SDS011;5331;48.148;16.326;2023-06-26T12:13:00;4.93;;;4.53;;
10565;SDS011;5331;48.148;16.326;2023-06-26T12:15:29;4.60;;;4.22;;
10565;SDS011;5331;48.148;16.326;2023-06-26T12:17:58;4.40;;;4.10;;
10565;SDS011;5331;48.148;16.326;2023-06-26T12:20:26;4.90;;;4.60;;
10565;SDS011;5331;48.148;16.326;2023-06-26T12:22:56;4.72;;;4.40;;
10565;SDS011;5331;48.148;16.326;2023-06-26T12:25:23;4.50;;;4.10;;
10565;SDS011;5331;48.148;16.326;2023-06-26T12:27:50;4.82;;;4.53;;
10565;SDS011;5331;48.148;16.326;2023-06-26T12:30:17;5.15;;;4.78;;
10565;SDS011;5331;48.148;16.326;2023-06-26T12:32:44;4.60;;;4.30;;
10565;SDS011;5331;48.148;16.326;2023-06-26T12:35:13;4.63;;;4.25;;
10565;SDS011;5331;48.148;16.326;2023-06-26T12:37:41;5.13;;;4.63;;
10565;SDS011;5331;48.148;16.326;2023-06-26T12:40:16;4.72;;;4.40;;
10565;SDS011;5331;48.148;16.326;2023-06-26T12:42:44;4.90;;;4.50;;
10565;SDS011;5331;48.148;16.326;2023-06-26T12:45:12;5.32;;;4.93;;
10565;SDS011;5331;48.148;16.326;2023-06-26T12:47:40;5.15;;;4.65;;
10565;SDS011;5331;48.148;16.326;2023-06-26T12:50:07;4.65;;;4.35;;
10565;SDS011;5331;48.148;16.326;2023-06-26T12:52:36;5.45;;;4.95;;
10565;SDS011;5331;48.148;16.326;2023-06-26T12:55:04;4.90;;;4.50;;
10565;SDS011;5331;48.148;16.326;2023-06-26T12:57:33;5.57;;;5.18;;
10565;SDS011;5331;48.148;16.326;2023-06-26T13:00:08;5.53;;;5.10;;
10565;SDS011;5331;48.148;16.326;2023-06-26T13:02:37;5.43;;;5.03;;
10565;SDS011;5331;48.148;16.326;2023-06-26T13:05:04;5.55;;;5.10;;
10565;SDS011;5331;48.148;16.326;2023-06-26T13:07:31;5.40;;;5.00;;
10565;SDS011;5331;48.148;16.326;2023-06-26T13:09:59;5.32;;;4.82;;
10565;SDS011;5331;48.148;16.326;2023-06-26T13:12:28;5.70;;;5.20;;
10565;SDS011;5331;48.148;16.326;2023-06-26T13:14:55;5.70;;;5.20;;
10565;SDS011;5331;48.148;16.326;2023-06-26T13:17:22;5.55;;;5.13;;
10565;SDS011;5331;48.148;16.326;2023-06-26T13:19:49;5.07;;;4.68;;
10565;SDS011;5331;48.148;16.326;2023-06-26T13:22:16;5.30;;;4.90;;
10565;SDS011;5331;48.148;16.326;2023-06-26T13:24:51;6.15;;;5.55;;
10565;SDS011;5331;48.148;16.326;2023-06-26T13:27:21;6.05;;;5.45;;
10565;SDS011;5331;48.148;16.326;2023-06-26T13:29:58;5.95;;;5.55;;
10565;SDS011;5331;48.148;16.326;2023-06-26T13:32:28;6.18;;;5.57;;
10565;SDS011;5331;48.148;16.326;2023-06-26T13:34:55;6.60;;;5.78;;
10565;SDS011;5331;48.148;16.326;2023-06-26T13:37:25;6.05;;;5.53;;
10565;SDS011;5331;48.148;16.326;2023-06-26T13:39:52;6.10;;;5.60;;
10565;SDS011;5331;48.148;16.326;2023-06-26T13:42:20;6.25;;;5.75;;
10565;SDS011;5331;48.148;16.326;2023-06-26T13:44:47;5.30;;;4.90;;
10565;SDS011;5331;48.148;16.326;2023-06-26T13:47:15;5.80;;;5.30;;
10565;SDS011;5331;48.148;16.326;2023-06-26T13:49:43;5.75;;;5.32;;
10565;SDS011;5331;48.148;16.326;2023-06-26T13:52:10;6.43;;;5.82;;
10565;SDS011;5331;48.148;16.326;2023-06-26T13:54:38;5.97;;;5.57;;
10565;SDS011;5331;48.148;16.326;2023-06-26T13:57:06;6.10;;;5.60;;
10565;SDS011;5331;48.148;16.326;2023-06-26T13:59:38;6.22;;;5.63;;
10565;SDS011;5331;48.148;16.326;2023-06-26T14:02:05;6.68;;;6.18;;
10565;SDS011;5331;48.148;16.326;2023-06-26T14:04:33;6.43;;;5.93;;
10565;SDS011;5331;48.148;16.326;2023-06-26T14:07:03;6.60;;;6.00;;
10565;SDS011;5331;48.148;16.326;2023-06-26T14:09:32;6.65;;;5.97;;
10565;SDS011;5331;48.148;16.326;2023-06-26T14:11:59;6.40;;;5.90;;
10565;SDS011;5331;48.148;16.326;2023-06-26T14:14:27;7.00;;;6.40;;
10565;SDS011;5331;48.148;16.326;2023-06-26T14:16:59;6.97;;;6.38;;
10565;SDS011;5331;48.148;16.326;2023-06-26T14:19:33;7.10;;;6.50;;
10565;SDS011;5331;48.148;16.326;2023-06-26T14:22:00;6.78;;;6.28;;
10565;SDS011;5331;48.148;16.326;2023-06-26T14:24:27;7.30;;;6.75;;
10565;SDS011;5331;48.148;16.326;2023-06-26T14:26:54;7.30;;;6.25;;
10565;SDS011;5331;48.148;16.326;2023-06-26T14:29:21;6.63;;;6.13;;
10565;SDS011;5331;48.148;16.326;2023-06-26T14:31:50;6.95;;;6.35;;
10565;SDS011;5331;48.148;16.326;2023-06-26T14:34:18;7.32;;;6.72;;
10565;SDS011;5331;48.148;16.326;2023-06-26T14:36:51;7.15;;;6.65;;
10565;SDS011;5331;48.148;16.326;2023-06-26T14:39:18;6.97;;;6.47;;
10565;SDS011;5331;48.148;16.326;2023-06-26T14:41:45;7.50;;;6.90;;
10565;SDS011;5331;48.148;16.326;2023-06-26T14:44:21;7.28;;;6.78;;
10565;SDS011;5331;48.148;16.326;2023-06-26T14:46:48;7.10;;;6.60;;
10565;SDS011;5331;48.148;16.326;2023-06-26T14:49:15;7.18;;;6.63;;
10565;SDS011;5331;48.148;16.326;2023-06-26T14:51:45;7.30;;;6.70;;
10565;SDS011;5331;48.148;16.326;2023-06-26T14:54:12;7.38;;;6.75;;
10565;SDS011;5331;48.148;16.326;2023-06-26T14:56:39;6.85;;;6.35;;